createdAt,value
2023-02-12T00:01:33.343Z,7.30
2023-02-12T00:04:08.208Z,7.20
2023-02-12T00:06:36.686Z,7.10
2023-02-12T00:09:08.987Z,7.30
2023-02-12T00:11:38.958Z,7.30
2023-02-12T00:14:13.539Z,7.30
2023-02-12T00:16:42.065Z,7.10
2023-02-12T00:19:12.009Z,7.20
2023-02-12T00:21:40.039Z,7.20
2023-02-12T00:24:09.740Z,7.40
2023-02-12T00:26:39.052Z,7.20
2023-02-12T00:29:07.112Z,7.20
2023-02-12T00:31:35.237Z,7.10
2023-02-12T00:34:03.326Z,7.10
2023-02-12T00:36:32.801Z,7.20
2023-02-12T00:39:01.372Z,7.00
2023-02-12T00:41:29.878Z,6.90
2023-02-12T00:43:59.273Z,7.20
2023-02-12T00:46:27.336Z,7.20
2023-02-12T00:48:55.625Z,7.20
2023-02-12T00:51:24.291Z,7.30
2023-02-12T00:53:52.300Z,7.20
2023-02-12T00:56:20.296Z,7.40
2023-02-12T00:58:48.299Z,7.40
2023-02-12T01:01:18.331Z,7.20
2023-02-12T01:03:46.464Z,7.30
2023-02-12T01:06:14.419Z,7.20
2023-02-12T01:08:42.480Z,7.00
2023-02-12T01:11:14.654Z,6.90
2023-02-12T01:13:42.711Z,7.10
2023-02-12T01:16:17.945Z,7.10
2023-02-12T01:18:48.026Z,7.40
2023-02-12T01:21:19.042Z,7.40
2023-02-12T01:23:50.944Z,7.50
2023-02-12T01:26:21.572Z,7.40
2023-02-12T01:28:52.815Z,7.60
2023-02-12T01:31:25.285Z,7.50
2023-02-12T01:33:55.847Z,7.60
2023-02-12T01:36:25.181Z,7.70
2023-02-12T01:38:53.549Z,7.80
2023-02-12T01:41:25.387Z,7.80
2023-02-12T01:44:16.700Z,7.70
2023-02-12T01:46:48.056Z,7.70
2023-02-12T01:49:21.644Z,7.50
2023-02-12T01:51:54.088Z,7.40
2023-02-12T01:54:25.715Z,7.30
2023-02-12T01:56:54.379Z,7.30
2023-02-12T01:59:23.121Z,7.20
2023-02-12T02:01:52.645Z,7.10
2023-02-12T02:04:25.298Z,7.00
2023-02-12T02:06:58.688Z,7.00
2023-02-12T02:09:27.804Z,7.00
2023-02-12T02:12:13.295Z,7.00
2023-02-12T02:14:43.018Z,7.10
2023-02-12T02:17:40.043Z,7.10
2023-02-12T02:21:00.753Z,7.10
2023-02-12T02:23:55.750Z,6.90
2023-02-12T02:26:46.090Z,7.00
2023-02-12T02:29:46.753Z,7.00
2023-02-12T02:32:19.789Z,6.90
2023-02-12T02:34:56.776Z,7.20
2023-02-12T02:37:31.568Z,7.00
2023-02-12T02:40:04.925Z,6.90
2023-02-12T02:42:38.953Z,6.80
2023-02-12T02:45:13.769Z,6.90
2023-02-12T02:47:47.159Z,6.80
2023-02-12T02:50:19.569Z,6.70
2023-02-12T02:52:53.618Z,6.80
2023-02-12T02:55:25.435Z,6.80
2023-02-12T02:57:58.600Z,6.80
2023-02-12T03:00:34.966Z,7.00
2023-02-12T03:03:11.480Z,7.10
2023-02-12T03:05:44.338Z,6.90
2023-02-12T03:08:18.069Z,6.70
2023-02-12T03:10:52.848Z,6.90
2023-02-12T03:13:27.112Z,7.10
2023-02-12T03:16:01.334Z,6.90
2023-02-12T03:18:36.560Z,6.80
2023-02-12T03:21:11.976Z,6.80
2023-02-12T03:23:45.983Z,6.80
2023-02-12T03:26:21.599Z,6.90
2023-02-12T03:28:49.804Z,6.80
2023-02-12T03:31:29.393Z,6.70
2023-02-12T03:34:10.473Z,6.60
2023-02-12T03:36:46.377Z,6.60
2023-02-12T03:39:21.381Z,6.80
2023-02-12T03:41:57.715Z,6.80
2023-02-12T03:44:42.800Z,6.70
2023-02-12T03:47:22.665Z,6.60
2023-02-12T03:50:00.069Z,6.70
2023-02-12T03:52:29.705Z,6.60
2023-02-12T03:54:58.022Z,6.70
2023-02-12T03:57:31.253Z,6.70
2023-02-12T04:00:00.143Z,6.60
2023-02-12T04:02:29.070Z,6.70
2023-02-12T04:04:58.687Z,6.60
2023-02-12T04:07:26.679Z,6.70
2023-02-12T04:09:54.632Z,6.60
2023-02-12T04:12:41.588Z,6.80
2023-02-12T04:15:32.169Z,6.90
2023-02-12T04:18:08.977Z,6.70
2023-02-12T04:20:51.291Z,6.60
2023-02-12T04:23:42.661Z,6.70
2023-02-12T04:26:21.487Z,6.80
2023-02-12T04:29:00.819Z,6.60
2023-02-12T04:31:34.627Z,6.50
2023-02-12T04:34:11.301Z,6.50
2023-02-12T04:36:48.104Z,6.80
2023-02-12T04:39:22.488Z,6.80
2023-02-12T04:41:50.917Z,6.90
2023-02-12T04:44:23.982Z,6.80
2023-02-12T04:46:52.164Z,6.90
2023-02-12T04:49:22.477Z,6.80
2023-02-12T04:51:52.177Z,7.00
2023-02-12T04:54:22.854Z,6.80
2023-02-12T04:56:51.628Z,6.80
2023-02-12T04:59:19.703Z,6.70
2023-02-12T05:01:47.962Z,6.60
2023-02-12T05:04:17.739Z,6.50
2023-02-12T05:06:46.880Z,6.50
2023-02-12T05:09:19.223Z,6.40
2023-02-12T05:11:47.703Z,6.40
2023-02-12T05:14:16.159Z,6.30
2023-02-12T05:16:44.386Z,6.40
2023-02-12T05:19:12.970Z,6.50
2023-02-12T05:21:40.962Z,6.50
2023-02-12T05:24:09.749Z,6.40
2023-02-12T05:26:39.144Z,6.50
2023-02-12T05:29:07.127Z,6.40
2023-02-12T05:31:35.320Z,6.50
2023-02-12T05:34:03.589Z,6.50
2023-02-12T05:36:32.416Z,6.70
2023-02-12T05:39:01.087Z,6.60
2023-02-12T05:41:29.658Z,6.50
2023-02-12T05:43:58.974Z,6.50
2023-02-12T05:46:27.031Z,6.50
2023-02-12T05:48:55.130Z,6.60
2023-02-12T05:51:25.160Z,6.50
2023-02-12T05:53:58.794Z,6.50
2023-02-12T05:56:29.708Z,6.60
2023-02-12T05:59:03.337Z,6.50
2023-02-12T06:01:34.528Z,6.50
2023-02-12T06:04:04.691Z,6.40
2023-02-12T06:06:33.914Z,6.40
2023-02-12T06:09:02.630Z,6.30
2023-02-12T06:11:30.636Z,6.30
2023-02-12T06:14:03.252Z,6.20
2023-02-12T06:16:31.492Z,6.20
2023-02-12T06:18:59.985Z,6.30
2023-02-12T06:21:28.847Z,6.30
2023-02-12T06:23:57.402Z,6.30
2023-02-12T06:26:25.757Z,6.20
2023-02-12T06:28:55.404Z,6.20
2023-02-12T06:31:27.456Z,6.20
2023-02-12T06:33:57.773Z,6.20
2023-02-12T06:36:26.540Z,6.20
2023-02-12T06:38:54.773Z,6.40
2023-02-12T06:41:24.363Z,6.40
2023-02-12T06:43:52.398Z,6.30
2023-02-12T06:46:20.840Z,6.40
2023-02-12T06:48:50.305Z,6.60
2023-02-12T06:51:23.539Z,6.40
2023-02-12T06:53:52.724Z,6.50
2023-02-12T06:56:22.728Z,6.40
2023-02-12T06:58:56.079Z,6.40
2023-02-12T07:01:26.429Z,6.30
2023-02-12T07:03:58.407Z,6.50
2023-02-12T07:06:27.999Z,6.60
2023-02-12T07:08:56.552Z,6.60
2023-02-12T07:11:26.102Z,6.50
2023-02-12T07:13:54.814Z,6.40
2023-02-12T07:16:23.451Z,6.40
2023-02-12T07:18:51.979Z,6.40
2023-02-12T07:21:22.650Z,6.40
2023-02-12T07:23:52.956Z,6.50
2023-02-12T07:26:22.696Z,6.60
2023-02-12T07:28:51.400Z,6.70
2023-02-12T07:31:22.593Z,6.80
2023-02-12T07:33:55.080Z,6.80
2023-02-12T07:36:26.356Z,6.80
2023-02-12T07:38:55.256Z,7.10
2023-02-12T07:41:26.471Z,7.20
2023-02-12T07:43:57.711Z,7.20
2023-02-12T07:46:29.815Z,7.30
2023-02-12T07:48:59.162Z,7.30
2023-02-12T07:51:29.560Z,7.20
2023-02-12T07:53:57.669Z,7.30
2023-02-12T07:56:30.707Z,7.30
2023-02-12T07:59:00.327Z,7.30
2023-02-12T08:01:31.665Z,7.30
2023-02-12T08:04:02.008Z,7.30
2023-02-12T08:06:33.197Z,7.30
2023-02-12T08:09:04.512Z,7.50
2023-02-12T08:11:33.461Z,7.40
2023-02-12T08:14:02.694Z,7.40
2023-02-12T08:16:31.765Z,7.60
2023-02-12T08:19:14.597Z,8.00
2023-02-12T08:21:47.216Z,8.10
2023-02-12T08:24:15.228Z,8.40
2023-02-12T08:26:44.254Z,8.50
2023-02-12T08:29:15.405Z,8.70
2023-02-12T08:31:46.607Z,8.90
2023-02-12T08:34:19.907Z,8.80
2023-02-12T08:36:51.123Z,8.90
2023-02-12T08:39:20.087Z,9.00
2023-02-12T08:41:48.697Z,8.70
2023-02-12T08:44:17.521Z,8.40
2023-02-12T08:46:50.928Z,8.30
2023-02-12T08:49:22.487Z,8.20
2023-02-12T08:51:54.791Z,8.40
2023-02-12T08:54:25.058Z,8.80
2023-02-12T08:56:56.687Z,8.90
2023-02-12T08:59:24.740Z,8.80
2023-02-12T09:01:53.707Z,8.90
2023-02-12T09:04:25.264Z,9.00
2023-02-12T09:06:55.212Z,9.20
2023-02-12T09:09:23.682Z,9.30
2023-02-12T09:11:51.712Z,9.30
2023-02-12T09:14:23.668Z,8.70
2023-02-12T09:16:53.448Z,8.40
2023-02-12T09:19:22.497Z,8.20
2023-02-12T09:21:56.094Z,8.30
2023-02-12T09:24:24.947Z,8.40
2023-02-12T09:26:52.989Z,8.70
2023-02-12T09:29:21.088Z,8.80
2023-02-12T09:31:49.241Z,8.80
2023-02-12T09:34:17.444Z,8.60
2023-02-12T09:36:45.437Z,8.30
2023-02-12T09:39:14.782Z,8.60
2023-02-12T09:42:10.560Z,8.80
2023-02-12T09:44:45.557Z,8.80
2023-02-12T09:47:20.039Z,8.90
2023-02-12T09:50:07.354Z,9.10
2023-02-12T09:52:36.792Z,9.10
2023-02-12T09:55:06.869Z,9.10
2023-02-12T09:57:37.574Z,9.20
2023-02-12T10:00:11.018Z,9.00
2023-02-12T10:02:41.491Z,9.00
2023-02-12T10:05:18.887Z,9.10
2023-02-12T10:08:10.308Z,9.00
2023-02-12T10:10:51.798Z,9.20
2023-02-12T10:13:32.831Z,9.20
2023-02-12T10:16:11.522Z,9.20
2023-02-12T10:18:54.458Z,9.00
2023-02-12T10:21:37.551Z,9.20
2023-02-12T10:24:29.903Z,9.10
2023-02-12T10:27:03.594Z,9.20
2023-02-12T10:29:35.912Z,9.20
2023-02-12T10:32:12.696Z,9.10
2023-02-12T10:34:43.786Z,9.10
2023-02-12T10:37:21.324Z,9.10
2023-02-12T10:39:54.665Z,9.10
2023-02-12T10:42:35.672Z,9.10
2023-02-12T10:45:04.381Z,9.20
2023-02-12T10:47:32.419Z,9.40
2023-02-12T10:50:03.040Z,9.40
2023-02-12T10:52:40.673Z,9.30
2023-02-12T10:55:27.334Z,9.30
2023-02-12T10:57:58.322Z,9.70
2023-02-12T11:00:32.336Z,9.80
2023-02-12T11:03:05.458Z,9.90
2023-02-12T11:05:37.148Z,9.60
2023-02-12T11:08:08.932Z,9.60
2023-02-12T11:10:41.157Z,9.50
2023-02-12T11:13:26.022Z,9.60
2023-02-12T11:15:55.035Z,9.90
2023-02-12T11:18:26.489Z,10.10
2023-02-12T11:20:58.425Z,10.20
2023-02-12T11:23:29.782Z,10.10
2023-02-12T11:26:01.672Z,10.10
2023-02-12T11:28:33.421Z,10.00
2023-02-12T11:31:03.778Z,10.20
2023-02-12T11:33:35.657Z,10.10
2023-02-12T11:36:22.360Z,10.20
2023-02-12T11:38:54.427Z,10.10
2023-02-12T11:41:36.674Z,10.00
2023-02-12T11:44:13.616Z,9.90
2023-02-12T11:46:48.480Z,9.90
2023-02-12T11:49:28.703Z,10.10
2023-02-12T11:51:59.660Z,10.10
2023-02-12T11:54:32.455Z,9.90
2023-02-12T11:57:01.063Z,10.00
2023-02-12T11:59:36.395Z,9.90
2023-02-12T12:02:19.107Z,9.90
2023-02-12T12:04:49.404Z,9.90
2023-02-12T12:07:24.832Z,10.00
2023-02-12T12:10:00.204Z,10.10
2023-02-12T12:12:41.058Z,10.00
2023-02-12T12:15:36.282Z,10.00
2023-02-12T12:18:43.462Z,10.20
2023-02-12T12:21:23.668Z,10.40
2023-02-12T12:23:56.377Z,10.40
2023-02-12T12:26:28.970Z,10.40
2023-02-12T12:29:03.081Z,10.50
2023-02-12T12:31:37.881Z,10.80
2023-02-12T12:34:11.356Z,10.90
2023-02-12T12:37:20.712Z,11.20
2023-02-12T12:40:24.800Z,10.90
2023-02-12T12:43:13.958Z,11.00
2023-02-12T12:46:39.112Z,11.00
2023-02-12T12:49:35.617Z,11.00
2023-02-12T12:53:01.376Z,11.00
2023-02-12T12:56:01.234Z,10.80
2023-02-12T12:58:44.324Z,10.90
2023-02-12T13:01:43.463Z,11.10
2023-02-12T13:04:43.857Z,11.40
2023-02-12T13:07:23.902Z,11.20
2023-02-12T13:10:11.749Z,11.40
2023-02-12T13:12:55.067Z,11.30
2023-02-12T13:15:34.714Z,11.20
2023-02-12T13:18:21.053Z,11.10
2023-02-12T13:21:03.482Z,11.10
2023-02-12T13:23:42.573Z,11.20
2023-02-12T13:26:20.174Z,11.20
2023-02-12T13:28:52.067Z,11.20
2023-02-12T13:31:33.167Z,11.40
2023-02-12T13:34:08.735Z,11.10
2023-02-12T13:36:38.962Z,11.10
2023-02-12T13:39:21.241Z,10.80
2023-02-12T13:42:04.448Z,10.80
2023-02-12T13:44:42.184Z,10.70
2023-02-12T13:47:22.590Z,10.90
2023-02-12T13:49:57.676Z,10.90
2023-02-12T13:52:36.072Z,11.00
2023-02-12T13:55:24.651Z,11.00
2023-02-12T13:58:47.812Z,11.00
2023-02-12T14:01:46.876Z,11.00
2023-02-12T14:04:25.461Z,11.20
2023-02-12T14:07:01.069Z,11.30
2023-02-12T14:09:37.683Z,11.30
2023-02-12T14:12:09.545Z,11.30
2023-02-12T14:14:41.641Z,11.30
2023-02-12T14:17:42.595Z,11.10
2023-02-12T14:20:28.540Z,11.10
2023-02-12T14:23:27.525Z,11.00
2023-02-12T14:26:14.560Z,10.90
2023-02-12T14:28:52.308Z,10.90
2023-02-12T14:31:34.385Z,11.00
2023-02-12T14:34:49.303Z,11.00
2023-02-12T14:37:48.764Z,11.20
2023-02-12T14:40:45.331Z,11.10
2023-02-12T14:43:54.345Z,11.10
2023-02-12T14:46:50.267Z,11.40
2023-02-12T14:49:24.448Z,11.30
2023-02-12T14:52:01.484Z,11.40
2023-02-12T14:54:33.898Z,11.40
2023-02-12T14:57:09.994Z,11.20
2023-02-12T14:59:42.668Z,11.10
2023-02-12T15:02:19.677Z,11.00
2023-02-12T15:04:48.074Z,11.20
2023-02-12T15:07:39.127Z,11.20
2023-02-12T15:10:24.060Z,11.20
2023-02-12T15:13:04.292Z,11.00
2023-02-12T15:15:37.556Z,11.20
2023-02-12T15:18:14.512Z,11.30
2023-02-12T15:20:51.481Z,11.50
2023-02-12T15:23:42.113Z,11.20
2023-02-12T15:26:17.741Z,11.00
2023-02-12T15:28:52.138Z,11.10
2023-02-12T15:31:27.469Z,11.00
2023-02-12T15:33:59.053Z,11.00
2023-02-12T15:36:30.468Z,11.00
2023-02-12T15:39:02.399Z,10.80
2023-02-12T15:41:38.847Z,10.70
2023-02-12T15:44:26.983Z,10.70
2023-02-12T15:47:01.887Z,10.80
2023-02-12T15:49:34.797Z,10.80
2023-02-12T15:52:09.081Z,10.80
2023-02-12T15:54:37.413Z,10.80
2023-02-12T15:57:12.844Z,10.70
2023-02-12T15:59:42.721Z,10.70
2023-02-12T16:02:22.122Z,10.90
2023-02-12T16:04:50.417Z,10.90
2023-02-12T16:07:19.713Z,11.00
2023-02-12T16:09:49.900Z,11.10
2023-02-12T16:12:24.025Z,11.10
2023-02-12T16:14:56.172Z,11.10
2023-02-12T16:17:30.468Z,11.10
2023-02-12T16:20:00.740Z,10.90
2023-02-12T16:22:33.354Z,11.00
2023-02-12T16:25:05.395Z,10.90
2023-02-12T16:27:35.678Z,10.60
2023-02-12T16:30:23.011Z,10.50
2023-02-12T16:32:52.456Z,10.30
2023-02-12T16:35:31.751Z,10.30
2023-02-12T16:38:04.831Z,10.10
2023-02-12T16:40:37.620Z,10.20
2023-02-12T16:43:25.592Z,10.00
2023-02-12T16:46:05.625Z,10.10
2023-02-12T16:48:40.608Z,9.90
2023-02-12T16:51:24.640Z,9.90
2023-02-12T16:53:53.890Z,9.70
2023-02-12T16:56:23.484Z,9.40
2023-02-12T16:58:55.202Z,9.30
2023-02-12T17:01:30.429Z,9.40
2023-02-12T17:04:08.000Z,9.30
2023-02-12T17:06:37.171Z,8.80
2023-02-12T17:09:05.315Z,8.50
2023-02-12T17:11:33.970Z,8.30
2023-02-12T17:14:01.954Z,8.40
2023-02-12T17:16:32.513Z,8.20
2023-02-12T17:19:01.541Z,7.80
2023-02-12T17:21:37.813Z,7.80
2023-02-12T17:24:07.061Z,7.70
2023-02-12T17:26:35.424Z,7.50
2023-02-12T17:29:05.580Z,7.30
2023-02-12T17:31:36.660Z,7.20
2023-02-12T17:34:06.249Z,7.00
2023-02-12T17:36:35.147Z,7.10
2023-02-12T17:39:07.273Z,7.00
2023-02-12T17:41:35.992Z,7.00
2023-02-12T17:44:04.342Z,6.80
2023-02-12T17:46:33.815Z,6.60
2023-02-12T17:49:02.500Z,6.40
2023-02-12T17:51:30.616Z,6.30
2023-02-12T17:53:58.685Z,6.30
2023-02-12T17:56:26.726Z,6.20
2023-02-12T17:58:55.255Z,6.30
2023-02-12T18:01:24.773Z,6.20
2023-02-12T18:03:56.867Z,6.10
2023-02-12T18:06:28.435Z,6.20
2023-02-12T18:08:58.134Z,6.20
2023-02-12T18:11:27.679Z,6.30
2023-02-12T18:13:59.780Z,6.20
2023-02-12T18:16:35.095Z,6.20
2023-02-12T18:19:06.171Z,6.10
2023-02-12T18:21:35.076Z,6.30
2023-02-12T18:24:04.336Z,6.30
2023-02-12T18:26:32.922Z,6.20
2023-02-12T18:29:02.315Z,6.20
2023-02-12T18:31:30.841Z,6.00
2023-02-12T18:33:58.880Z,5.90
2023-02-12T18:36:28.503Z,5.90
2023-02-12T18:38:56.539Z,5.80
2023-02-12T18:41:28.196Z,5.80
2023-02-12T18:43:58.016Z,5.90
2023-02-12T18:46:29.366Z,6.00
2023-02-12T18:48:58.504Z,5.90
2023-02-12T18:51:36.560Z,5.80
2023-02-12T18:54:10.774Z,5.80
2023-02-12T18:56:46.895Z,5.80
2023-02-12T18:59:16.359Z,5.80
2023-02-12T19:01:46.306Z,6.00
2023-02-12T19:04:16.890Z,5.90
2023-02-12T19:06:50.911Z,5.90
2023-02-12T19:09:24.272Z,5.80
2023-02-12T19:11:59.800Z,5.90
2023-02-12T19:14:30.796Z,5.80
2023-02-12T19:16:58.975Z,5.80
2023-02-12T19:19:27.702Z,5.70
2023-02-12T19:21:57.043Z,5.70
2023-02-12T19:24:26.223Z,5.50
2023-02-12T19:26:56.685Z,5.40
2023-02-12T19:29:24.952Z,5.40
2023-02-12T19:31:53.047Z,5.50
2023-02-12T19:34:24.801Z,5.50
2023-02-12T19:36:53.014Z,5.70
2023-02-12T19:39:24.961Z,5.50
2023-02-12T19:41:54.458Z,5.60
2023-02-12T19:44:26.639Z,5.60
2023-02-12T19:46:54.890Z,5.50
2023-02-12T19:49:26.120Z,5.50
2023-02-12T19:51:54.284Z,5.50
2023-02-12T19:54:24.928Z,5.40
2023-02-12T19:56:55.129Z,5.50
2023-02-12T19:59:25.717Z,5.60
2023-02-12T20:01:54.350Z,5.50
2023-02-12T20:04:24.590Z,5.40
2023-02-12T20:06:53.156Z,5.40
2023-02-12T20:09:23.801Z,5.50
2023-02-12T20:11:53.929Z,5.70
2023-02-12T20:14:22.744Z,5.50
2023-02-12T20:16:52.131Z,5.50
2023-02-12T20:19:25.530Z,5.60
2023-02-12T20:21:55.659Z,5.60
2023-02-12T20:24:27.412Z,5.60
2023-02-12T20:26:56.933Z,5.80
2023-02-12T20:29:25.865Z,5.90
2023-02-12T20:31:54.111Z,6.10
2023-02-12T20:34:22.757Z,6.30
2023-02-12T20:36:51.429Z,6.20
2023-02-12T20:39:21.586Z,6.10
2023-02-12T20:41:52.500Z,6.00
2023-02-12T20:44:22.361Z,6.20
2023-02-12T20:46:56.110Z,6.40
2023-02-12T20:49:25.878Z,6.30
2023-02-12T20:51:54.805Z,6.40
2023-02-12T20:54:23.223Z,6.50
2023-02-12T20:56:53.628Z,6.50
2023-02-12T20:59:21.632Z,6.60
2023-02-12T21:01:49.604Z,6.70
2023-02-12T21:04:20.173Z,6.90
2023-02-12T21:06:48.801Z,6.90
2023-02-12T21:09:18.658Z,6.90
2023-02-12T21:11:46.852Z,6.90
2023-02-12T21:14:25.063Z,7.00
2023-02-12T21:16:54.313Z,7.10
2023-02-12T21:19:23.137Z,7.20
2023-02-12T21:21:51.764Z,7.20
2023-02-12T21:24:22.985Z,7.30
2023-02-12T21:26:53.646Z,7.20
2023-02-12T21:29:25.978Z,7.40
2023-02-12T21:31:55.011Z,7.50
2023-02-12T21:34:24.483Z,7.60
2023-02-12T21:36:55.567Z,7.70
2023-02-12T21:39:27.417Z,7.80
2023-02-12T21:41:58.482Z,7.80
2023-02-12T21:44:28.466Z,7.80
2023-02-12T21:46:57.932Z,8.00
2023-02-12T21:49:27.592Z,8.00
2023-02-12T21:51:58.767Z,8.00
2023-02-12T21:54:28.794Z,8.00
2023-02-12T21:56:57.513Z,8.00
2023-02-12T21:59:30.671Z,8.10
2023-02-12T22:02:00.615Z,8.10
2023-02-12T22:04:29.373Z,8.30
2023-02-12T22:06:58.237Z,8.20
2023-02-12T22:09:26.266Z,8.20
2023-02-12T22:11:54.314Z,8.10
2023-02-12T22:14:23.633Z,8.10
2023-02-12T22:16:53.060Z,8.10
2023-02-12T22:19:21.148Z,8.30
2023-02-12T22:21:52.468Z,8.20
2023-02-12T22:24:21.401Z,8.10
2023-02-12T22:26:49.573Z,8.20
2023-02-12T22:29:18.360Z,8.30
2023-02-12T22:31:48.078Z,8.20
2023-02-12T22:34:19.738Z,8.30
2023-02-12T22:36:48.241Z,8.30
2023-02-12T22:39:17.786Z,8.30
2023-02-12T22:41:46.207Z,8.40
2023-02-12T22:44:16.027Z,8.40
2023-02-12T22:46:44.340Z,8.50
2023-02-12T22:49:12.530Z,8.40
2023-02-12T22:51:42.359Z,8.40
2023-02-12T22:54:14.607Z,8.30
2023-02-12T22:56:44.045Z,8.50
2023-02-12T22:59:13.445Z,8.60
2023-02-12T23:01:41.711Z,8.60
2023-02-12T23:04:16.003Z,8.50
2023-02-12T23:06:46.222Z,8.60
2023-02-12T23:09:17.950Z,8.50
2023-02-12T23:11:46.525Z,8.50
2023-02-12T23:14:14.579Z,8.60
2023-02-12T23:16:42.598Z,8.50
2023-02-12T23:19:12.261Z,8.60
2023-02-12T23:21:40.332Z,8.60
2023-02-12T23:24:14.402Z,8.50
2023-02-12T23:26:42.434Z,8.60
2023-02-12T23:29:10.527Z,8.80
2023-02-12T23:31:38.597Z,8.80
2023-02-12T23:34:06.628Z,8.70
2023-02-12T23:36:34.642Z,8.50
2023-02-12T23:39:05.616Z,8.50
2023-02-12T23:41:35.058Z,8.40
2023-02-12T23:44:03.155Z,8.50
2023-02-12T23:46:31.151Z,8.50
2023-02-12T23:48:59.147Z,8.30
2023-02-12T23:51:27.312Z,8.30
2023-02-12T23:53:55.293Z,8.30
2023-02-12T23:56:23.460Z,8.20
2023-02-12T23:58:52.811Z,7.90
